Time;durP1;ratioP1;P1;durP2;ratioP2;P2;SDS_P1;SDS_P2;PMS_P1;PMS_P2;Temp;Humidity;BMP_temperature;BMP_pressure;BME280_temperature;BME280_humidity;BME280_pressure;Samples;Min_cycle;Max_cycle;Signal;HPM_P1;HPM_P2
2022/12/28 17:21:01;;;;;;;10.08;4.92;;;;;;;2.39;74.93;101826.66;1754356;80;20979;-87
2022/12/28 17:23:29;;;;;;;12.15;5.15;;;;;;;2.40;74.94;101828.40;1762529;80;21164;-85
2022/12/28 17:25:56;;;;;;;6.87;4.90;;;;;;;2.40;75.06;101830.11;1763148;80;21436;-85
2022/12/28 17:28:22;;;;;;;8.88;4.87;;;;;;;2.40;75.16;101830.98;1756490;80;21136;-86
2022/12/28 17:30:49;;;;;;;17.87;8.75;;;;;;;2.43;75.15;101831.40;1752478;80;20992;-84
2022/12/28 17:33:15;;;;;;;25.32;10.98;;;;;;;2.46;75.02;101840.42;1745508;79;20998;-86
2022/12/28 17:35:42;;;;;;;20.85;11.18;;;;;;;2.47;74.89;101831.80;1763238;79;21139;-86
2022/12/28 17:38:09;;;;;;;13.98;7.37;;;;;;;2.44;74.66;101830.07;1759543;79;21233;-86
2022/12/28 17:40:40;;;;;;;21.02;7.83;;;;;;;2.46;74.76;101837.84;1766728;79;20912;-86
2022/12/28 17:43:08;;;;;;;23.52;13.18;;;;;;;2.46;74.80;101838.69;1767785;80;20908;-87
2022/12/28 17:45:35;;;;;;;16.75;7.05;;;;;;;2.46;74.83;101836.55;1750530;80;21129;-87
2022/12/28 17:48:05;;;;;;;14.53;7.42;;;;;;;2.47;74.84;101839.13;1762717;80;22450;-88
2022/12/28 17:50:32;;;;;;;21.20;8.68;;;;;;;2.47;74.87;101839.13;1743199;80;21618;-86
2022/12/28 17:52:59;;;;;;;16.97;8.70;;;;;;;2.50;74.84;101843.42;1758731;80;20983;-85
2022/12/28 17:55:27;;;;;;;17.60;9.70;;;;;;;2.52;74.70;101836.95;1756592;80;21089;-84
2022/12/28 17:57:53;;;;;;;24.23;10.93;;;;;;;2.52;74.62;101843.42;1755435;80;21065;-86
2022/12/28 18:00:22;;;;;;;22.05;10.63;;;;;;;2.51;74.58;101849.45;1763714;80;21133;-88
2022/12/28 18:02:49;;;;;;;22.75;10.58;;;;;;;2.51;74.59;101846.86;1685777;83;21125;-85
2022/12/28 18:05:16;;;;;;;26.07;12.55;;;;;;;2.47;74.75;101860.28;1761552;80;21043;-85
2022/12/28 18:07:44;;;;;;;28.27;13.32;;;;;;;2.48;74.81;101862.84;1751030;80;21026;-87
2022/12/28 18:10:10;;;;;;;39.15;17.80;;;;;;;2.51;74.78;101867.13;1760427;80;20967;-86
2022/12/28 18:12:38;;;;;;;49.58;21.62;;;;;;;2.52;74.80;101860.25;1751731;80;21156;-87
2022/12/28 18:15:06;;;;;;;55.17;24.35;;;;;;;2.53;74.98;101870.58;1751945;80;21405;-85
2022/12/28 18:17:32;;;;;;;58.13;26.00;;;;;;;2.55;74.95;101867.98;1756437;80;20927;-87
2022/12/28 18:19:59;;;;;;;62.05;26.37;;;;;;;2.58;74.83;101871.43;1754059;80;21485;-88
2022/12/28 18:22:28;;;;;;;55.23;25.50;;;;;;;2.59;74.63;101867.10;1759835;80;21002;-87
2022/12/28 18:24:55;;;;;;;69.10;32.35;;;;;;;2.58;74.50;101866.66;1764915;80;21403;-87
2022/12/28 18:27:23;;;;;;;47.20;21.45;;;;;;;2.59;74.33;101860.63;1753688;80;20896;-83
2022/12/28 18:29:50;;;;;;;49.70;19.17;;;;;;;2.57;74.35;101866.25;1733538;80;20967;-87
2022/12/28 18:32:18;;;;;;;50.43;19.27;;;;;;;2.54;74.22;101868.88;1745686;80;21074;-88
2022/12/28 18:34:45;;;;;;;48.25;19.37;;;;;;;2.51;74.46;101874.05;1742735;80;21058;-85
2022/12/28 18:37:13;;;;;;;36.13;14.25;;;;;;;2.47;74.53;101867.61;1749801;80;20955;-88
2022/12/28 18:39:40;;;;;;;35.38;13.50;;;;;;;2.46;74.52;101864.58;1772081;80;20943;-86
2022/12/28 18:42:06;;;;;;;26.20;13.40;;;;;;;2.45;74.55;101868.05;1764784;80;20888;-86
2022/12/28 18:44:34;;;;;;;25.37;12.53;;;;;;;2.46;74.76;101872.78;1750330;80;20971;-88
2022/12/28 18:47:01;;;;;;;27.27;11.48;;;;;;;2.46;75.05;101872.34;1759168;80;20888;-87
2022/12/28 18:49:28;;;;;;;31.50;14.98;;;;;;;2.48;75.12;101874.49;1765663;80;21123;-86
2022/12/28 18:51:55;;;;;;;30.62;15.68;;;;;;;2.51;75.10;101875.34;1762806;80;21301;-88
2022/12/28 18:54:22;;;;;;;22.27;10.72;;;;;;;2.52;74.93;101877.09;1748616;80;20908;-88
2022/12/28 18:56:49;;;;;;;20.85;10.78;;;;;;;2.52;74.91;101884.84;1748791;80;20951;-85
2022/12/28 18:59:16;;;;;;;24.10;10.80;;;;;;;2.53;74.88;101877.05;1766184;80;21038;-85
2022/12/28 19:01:42;;;;;;;20.27;9.30;;;;;;;2.54;74.92;101887.85;1764520;80;21243;-86
2022/12/28 19:04:09;;;;;;;28.42;11.20;;;;;;;2.55;74.81;101886.97;1742984;80;20911;-87
2022/12/28 19:06:36;;;;;;;30.60;14.20;;;;;;;2.58;74.70;101892.55;1759500;80;20994;-86
2022/12/28 19:09:03;;;;;;;22.45;10.88;;;;;;;2.59;74.54;101889.97;1770105;80;21496;-86
2022/12/28 19:11:31;;;;;;;23.22;11.15;;;;;;;2.56;74.57;101881.37;1755756;80;21089;-86
2022/12/28 19:13:57;;;;;;;24.43;13.13;;;;;;;2.56;74.81;101884.82;1742053;80;21132;-87
2022/12/28 19:16:24;;;;;;;25.60;13.72;;;;;;;2.55;74.67;101888.26;1757747;80;20897;-86
2022/12/28 19:18:51;;;;;;;24.67;13.95;;;;;;;2.54;74.65;101892.18;1742292;80;20999;-86
2022/12/28 19:21:29;;;;;;;35.38;17.45;;;;;;;2.48;74.57;101887.44;1743688;80;20990;-87
2022/12/28 19:24:02;;;;;;;32.08;16.90;;;;;;;2.47;74.54;101891.35;1756602;80;21049;-86
2022/12/28 19:26:30;;;;;;;37.08;18.75;;;;;;;2.44;74.67;101904.30;1753095;80;21313;-87
2022/12/28 19:28:57;;;;;;;49.98;23.15;;;;;;;2.42;74.74;101900.86;1746058;80;21025;-87
2022/12/28 19:31:23;;;;;;;52.70;26.23;;;;;;;2.40;74.80;101902.59;1762621;80;20944;-84
2022/12/28 19:33:52;;;;;;;72.00;34.05;;;;;;;2.37;75.01;101914.27;1762787;80;20896;-87
2022/12/28 19:36:20;;;;;;;91.32;44.77;;;;;;;2.33;75.18;101912.11;1741853;81;20937;-86
2022/12/28 19:38:48;;;;;;;71.67;35.33;;;;;;;2.31;75.37;101918.17;1755709;80;21481;-85
2022/12/28 19:41:15;;;;;;;55.75;27.02;;;;;;;2.30;75.39;101913.88;1743184;80;20891;-87
2022/12/28 19:43:42;;;;;;;53.40;26.12;;;;;;;2.25;75.26;101916.48;1749556;80;21003;-85
2022/12/28 19:46:14;;;;;;;57.10;27.00;;;;;;;2.23;75.12;101919.52;1757693;80;20970;-87
2022/12/28 19:48:40;;;;;;;54.65;24.60;;;;;;;2.16;75.07;101917.83;1748997;80;20884;-87
2022/12/28 19:51:07;;;;;;;44.25;22.90;;;;;;;2.11;75.13;101919.55;1740037;80;21894;-87
2022/12/28 19:53:33;;;;;;;50.25;20.48;;;;;;;2.05;75.24;101915.28;1760872;80;21011;-87
2022/12/28 19:56:15;;;;;;;42.88;21.95;;;;;;;1.99;75.35;101914.85;1750303;80;21007;-87
2022/12/28 19:58:43;;;;;;;36.30;19.12;;;;;;;1.97;75.49;101916.58;1763455;80;20937;-88
2022/12/28 20:01:14;;;;;;;29.72;18.80;;;;;;;1.92;75.59;101923.51;1758650;80;20988;-87
2022/12/28 20:03:42;;;;;;;37.73;18.37;;;;;;;1.90;75.61;101924.38;1758989;80;21086;-89
2022/12/28 20:06:17;;;;;;;36.83;19.90;;;;;;;1.86;75.70;101923.08;1767073;80;20983;-87
2022/12/28 20:08:51;;;;;;;38.75;17.60;;;;;;;1.82;75.75;101918.80;1757046;80;21006;-87
2022/12/28 20:11:22;;;;;;;32.30;19.32;;;;;;;1.80;75.83;101915.77;1750928;80;21545;-86
2022/12/28 20:13:53;;;;;;;36.73;18.37;;;;;;;1.78;75.90;101921.37;1759494;80;20911;-87
2022/12/28 20:16:23;;;;;;;38.23;20.92;;;;;;;1.75;75.96;101922.69;1742851;80;21171;-84
2022/12/28 20:18:52;;;;;;;35.78;20.02;;;;;;;1.73;76.11;101924.41;1772439;80;21000;-88
2022/12/28 20:21:20;;;;;;;38.48;21.93;;;;;;;1.70;76.04;101931.75;1763778;80;20988;-87
2022/12/28 20:23:49;;;;;;;35.03;19.57;;;;;;;1.66;76.01;101940.38;1757383;80;20963;-89
2022/12/28 20:29:15;;;;;;;22.20;10.10;;;;;;;1.53;76.15;101951.59;1770958;80;20805;-85
2022/12/28 20:31:41;;;;;;;22.00;10.45;;;;;;;1.42;76.34;101949.90;1757157;80;21022;-86
2022/12/28 20:34:08;;;;;;;28.10;13.80;;;;;;;1.36;76.63;101946.02;1747905;80;20994;-86
2022/12/28 20:36:35;;;;;;;22.20;11.73;;;;;;;1.32;76.88;101941.70;1745004;79;20976;-85
2022/12/28 20:39:02;;;;;;;28.30;15.25;;;;;;;1.31;77.21;101941.29;1745796;79;21040;-85
2022/12/28 20:47:32;;;;;;;34.88;15.65;;;;;;;1.37;77.23;101950.31;1697623;83;21401;-86
2022/12/28 20:50:02;;;;;;;33.13;15.78;;;;;;;1.36;77.27;101961.52;1691626;83;21758;-86
2022/12/28 20:52:29;;;;;;;35.48;16.17;;;;;;;1.35;77.31;101962.37;1692964;83;20970;-85
2022/12/28 20:54:55;;;;;;;34.38;16.70;;;;;;;1.35;77.41;101964.09;1697961;83;21814;-87
2022/12/28 20:57:22;;;;;;;28.90;15.18;;;;;;;1.36;77.47;101961.52;1707209;83;20938;-85
2022/12/28 20:59:49;;;;;;;23.90;14.05;;;;;;;1.35;77.49;101957.20;1698750;83;21525;-84
2022/12/28 21:02:15;;;;;;;25.55;13.83;;;;;;;1.32;77.37;101958.50;1703338;82;21037;-85
2022/12/28 21:04:42;;;;;;;30.77;15.80;;;;;;;1.27;77.48;101970.98;1693015;83;20946;-84
2022/12/28 21:07:09;;;;;;;31.10;16.42;;;;;;;1.23;77.60;101968.41;1707982;83;21132;-85
2022/12/28 21:09:36;;;;;;;30.37;16.55;;;;;;;1.19;77.70;101965.38;1697948;83;20917;-84
2022/12/28 21:12:03;;;;;;;31.12;17.50;;;;;;;1.17;77.78;101961.08;1689376;83;21025;-82
2022/12/28 21:14:31;;;;;;;47.27;21.33;;;;;;;1.15;77.96;101970.55;1721224;81;21011;-85
2022/12/28 21:16:58;;;;;;;38.33;18.80;;;;;;;1.13;78.06;101965.81;1741506;81;21832;-85
2022/12/28 21:19:25;;;;;;;30.20;16.85;;;;;;;1.12;78.21;101961.52;1747289;80;21201;-85
2022/12/28 21:21:51;;;;;;;31.87;16.30;;;;;;;1.11;78.30;101965.83;1744938;80;21003;-85
2022/12/28 21:24:18;;;;;;;27.98;16.67;;;;;;;1.12;78.30;101961.52;1713339;83;20911;-86
2022/12/28 21:26:44;;;;;;;52.78;25.37;;;;;;;1.12;78.38;101962.81;1707675;83;21021;-84
2022/12/28 21:29:11;;;;;;;40.73;20.55;;;;;;;1.13;78.43;101965.81;1688026;83;21525;-82
2022/12/28 21:31:38;;;;;;;36.80;19.40;;;;;;;1.13;78.41;101970.54;1683939;83;21132;-82
2022/12/28 21:34:06;;;;;;;35.52;18.60;;;;;;;1.12;78.38;101975.29;1675967;83;20882;-85
2022/12/28 21:36:32;;;;;;;40.00;20.23;;;;;;;1.11;78.40;101975.28;1685808;83;20924;-84
2022/12/28 21:39:00;;;;;;;33.42;15.72;;;;;;;1.09;78.36;101977.88;1744281;81;20891;-85
2022/12/28 21:44:12;;;;;;;39.88;19.60;;;;;;;1.08;78.50;101980.02;1750875;81;21191;-84
2022/12/28 21:46:39;;;;;;;33.83;15.93;;;;;;;1.09;78.56;101983.45;1750441;80;20915;-85
2022/12/28 21:49:06;;;;;;;33.28;16.95;;;;;;;1.09;78.53;101980.47;1737747;80;20958;-85
2022/12/28 21:51:37;;;;;;;29.90;16.90;;;;;;;1.09;78.55;101974.01;1747587;79;20909;-84
2022/12/28 21:54:13;;;;;;;51.83;22.37;;;;;;;1.10;78.55;101971.84;1746807;79;21129;-84
2022/12/28 21:56:42;;;;;;;24.92;11.08;;;;;;;1.09;78.57;101971.42;1746755;79;21104;-86
2022/12/28 21:59:11;;;;;;;27.05;11.95;;;;;;;1.08;78.56;101977.88;1749362;79;20983;-85
2022/12/28 22:07:11;;;;;;;24.37;13.32;;;;;;;1.03;78.96;101972.27;1747002;81;20948;-84
2022/12/28 22:12:36;;;;;;;;;;;;;;;1.06;79.01;101977.86;1755886;81;20956;-84
2022/12/28 22:18:09;;;;;;;16.07;8.55;;;;;;;1.00;79.40;101976.14;1749904;81;20924;-84
2022/12/28 22:20:37;;;;;;;28.62;11.15;;;;;;;0.99;79.64;101984.73;1745784;81;21353;-84
2022/12/28 22:23:03;;;;;;;19.98;9.90;;;;;;;0.98;79.68;101979.16;1745851;81;21123;-85
2022/12/28 22:25:31;;;;;;;23.52;10.43;;;;;;;0.95;79.78;101965.36;1746673;81;20947;-84
2022/12/28 22:27:58;;;;;;;22.67;10.82;;;;;;;0.94;79.93;101967.53;1746514;81;21109;-84
2022/12/28 22:30:25;;;;;;;18.85;9.83;;;;;;;0.92;80.11;101964.93;1749753;81;20998;-83
2022/12/28 22:32:52;;;;;;;17.07;8.90;;;;;;;0.89;80.28;101969.22;1748689;81;21092;-84
2022/12/28 22:35:19;;;;;;;19.05;9.40;;;;;;;0.87;80.44;101970.53;1740423;81;21138;-83
2022/12/28 22:37:45;;;;;;;19.48;9.78;;;;;;;0.89;80.54;101971.80;1742311;81;21546;-82
2022/12/28 22:40:12;;;;;;;17.02;10.25;;;;;;;0.88;80.55;101970.95;1747539;81;20968;-83
2022/12/28 22:42:42;;;;;;;20.15;10.35;;;;;;;0.88;80.69;101964.92;1752140;81;21089;-84
2022/12/28 22:45:11;;;;;;;17.48;9.90;;;;;;;0.86;80.91;101964.06;1740585;81;20944;-84
2022/12/28 22:47:38;;;;;;;17.17;9.63;;;;;;;0.84;81.03;101967.92;1723069;81;21146;-84
2022/12/28 22:50:06;;;;;;;14.75;7.28;;;;;;;0.80;81.01;101968.77;1744408;81;20932;-84
2022/12/28 22:52:33;;;;;;;15.80;8.93;;;;;;;0.78;81.08;101964.91;1744088;81;21438;-83
2022/12/28 22:55:00;;;;;;;22.27;9.25;;;;;;;0.76;81.30;101958.87;1748337;81;21158;-83
2022/12/28 22:57:27;;;;;;;20.37;9.20;;;;;;;0.75;81.46;101961.02;1746329;81;20872;-84
2022/12/28 22:59:53;;;;;;;20.65;10.18;;;;;;;0.73;81.57;101961.44;1743161;81;21842;-84
2022/12/28 23:02:20;;;;;;;19.15;9.90;;;;;;;0.72;81.71;101962.31;1746643;81;21070;-83
2022/12/28 23:04:46;;;;;;;16.62;9.13;;;;;;;0.71;81.78;101967.05;1742410;80;21027;-84
2022/12/28 23:09:40;;;;;;;19.65;8.68;;;;;;;0.72;81.92;101968.77;1871908;76;22430;-83
2022/12/28 23:12:07;;;;;;;13.93;8.40;;;;;;;0.63;82.08;101973.91;1828461;77;20907;-83
2022/12/28 23:17:18;;;;;;;21.05;9.33;;;;;;;0.55;82.36;101967.84;1828177;77;20899;-83
2022/12/28 23:28:11;;;;;;;15.80;7.50;;;;;;;0.53;82.96;101980.73;1828100;78;21252;-84
2022/12/28 23:30:40;;;;;;;10.95;7.33;;;;;;;0.52;83.03;101985.48;1828800;77;21329;-84
2022/12/28 23:33:06;;;;;;;16.32;7.35;;;;;;;0.53;82.99;101989.77;1828305;78;20880;-84
2022/12/28 23:35:33;;;;;;;13.55;7.67;;;;;;;0.51;83.03;101988.94;1829865;78;20887;-83
2022/12/28 23:38:00;;;;;;;15.53;6.95;;;;;;;0.48;83.02;101987.61;1830785;77;20829;-83
2022/12/28 23:40:28;;;;;;;14.25;7.08;;;;;;;0.46;83.07;101987.17;1830826;77;21114;-83
2022/12/28 23:42:55;;;;;;;15.00;7.37;;;;;;;0.46;83.23;101989.32;1830611;77;21160;-84
2022/12/28 23:45:21;;;;;;;13.03;5.92;;;;;;;0.46;83.37;101989.32;1830794;77;20951;-84
2022/12/28 23:47:51;;;;;;;13.83;6.55;;;;;;;0.48;83.38;101988.05;1831106;77;21022;-83
2022/12/28 23:50:18;;;;;;;11.88;7.42;;;;;;;0.46;83.46;101991.05;1810934;77;21165;-83
2022/12/28 23:52:44;;;;;;;12.35;7.10;;;;;;;0.46;83.42;101988.47;1830546;77;21164;-83
2022/12/28 23:55:11;;;;;;;11.40;6.60;;;;;;;0.45;83.43;101994.50;1830412;77;20812;-82
2022/12/28 23:57:38;;;;;;;10.78;6.65;;;;;;;0.44;83.48;102000.50;1831200;77;20868;-82
